Time;durP1;ratioP1;P1;durP2;ratioP2;P2;SDS_P1;SDS_P2;PMS_P1;PMS_P2;Temp;Humidity;BMP_temperature;BMP_pressure;BME280_temperature;BME280_humidity;BME280_pressure;Samples;Min_cycle;Max_cycle;Signal;HPM_P1;HPM_P2
2023/11/03 00:00:32;;;;;;;32.17;16.85;;;;;;;;;;6142479;23;20028;-57
2023/11/03 00:03:25;;;;;;;27.95;18.08;;;;;;;;;;6142439;23;20025;-54
2023/11/03 00:06:19;;;;;;;27.52;18.75;;;;;;;;;;6143212;23;20022;-52
2023/11/03 00:09:07;;;;;;;26.73;18.40;;;;;;;;;;6142065;23;20021;-58
2023/11/03 00:12:00;;;;;;;27.98;17.38;;;;;;;;;;6142172;23;20024;-54
2023/11/03 00:14:47;;;;;;;27.88;17.67;;;;;;;;;;6142221;23;20033;-55
2023/11/03 00:17:41;;;;;;;28.60;17.15;;;;;;;;;;6138722;23;20021;-66
2023/11/03 00:20:28;;;;;;;35.85;19.65;;;;;;;;;;6143393;23;20021;-59
2023/11/03 00:23:23;;;;;;;30.48;19.70;;;;;;;;;;6143122;23;20025;-59
2023/11/03 00:26:10;;;;;;;25.80;18.48;;;;;;;;;;6141451;23;20065;-59
2023/11/03 00:29:05;;;;;;;33.72;20.58;;;;;;;;;;6143073;23;20096;-60
2023/11/03 00:31:58;;;;;;;33.67;20.55;;;;;;;;;;6141135;23;20025;-60
2023/11/03 00:34:52;;;;;;;33.95;19.45;;;;;;;;;;6141436;23;20031;-66
2023/11/03 00:37:19;;;;;;;26.85;17.98;;;;;;;;;;6142535;23;20727;-59
2023/11/03 00:40:13;;;;;;;29.65;21.20;;;;;;;;;;6142290;23;20076;-66
2023/11/03 00:43:02;;;;;;;29.70;20.40;;;;;;;;;;6142364;23;20033;-66
2023/11/03 00:45:53;;;;;;;35.95;22.40;;;;;;;;;;6141553;23;20084;-65
2023/11/03 00:48:42;;;;;;;30.88;20.58;;;;;;;;;;6141553;23;20025;-64
2023/11/03 00:51:35;;;;;;;34.72;23.23;;;;;;;;;;6140639;23;20022;-64
2023/11/03 00:54:22;;;;;;;38.78;23.08;;;;;;;;;;6141419;23;20104;-62
2023/11/03 00:57:17;;;;;;;31.30;21.45;;;;;;;;;;6141621;23;20129;-48
2023/11/03 01:00:05;;;;;;;30.83;21.08;;;;;;;;;;6141380;23;20560;-50
2023/11/03 01:03:04;;;;;;;33.85;21.13;;;;;;;;;;6139854;23;20036;-51
2023/11/03 01:05:53;;;;;;;32.13;20.30;;;;;;;;;;6137356;23;20088;-50
2023/11/03 01:08:46;;;;;;;33.80;21.98;;;;;;;;;;6139874;23;20068;-52
2023/11/03 01:11:33;;;;;;;33.50;21.73;;;;;;;;;;6143018;23;20107;-53
2023/11/03 01:14:30;;;;;;;34.05;21.15;;;;;;;;;;6143911;23;20022;-59
2023/11/03 01:17:16;;;;;;;31.48;22.05;;;;;;;;;;6141005;23;20069;-58
2023/11/03 01:20:19;;;;;;;33.75;20.33;;;;;;;;;;6141549;23;20037;-58
2023/11/03 01:22:58;;;;;;;37.55;22.42;;;;;;;;;;6141565;23;20037;-59
2023/11/03 01:25:51;;;;;;;31.80;21.45;;;;;;;;;;6139713;23;20084;-59
2023/11/03 01:28:38;;;;;;;37.40;23.00;;;;;;;;;;6141660;23;20574;-58
2023/11/03 01:31:33;;;;;;;37.97;23.20;;;;;;;;;;6141234;23;20036;-64
2023/11/03 01:34:19;;;;;;;35.53;21.92;;;;;;;;;;6140610;23;20032;-64
2023/11/03 01:37:13;;;;;;;36.28;21.90;;;;;;;;;;6142427;23;20025;-64
2023/11/03 01:40:06;;;;;;;29.55;21.80;;;;;;;;;;6139799;23;20029;-63
2023/11/03 01:42:54;;;;;;;33.00;22.73;;;;;;;;;;6141278;23;20124;-64
2023/11/03 01:45:41;;;;;;;32.15;22.40;;;;;;;;;;6140859;23;20357;-64
2023/11/03 01:48:15;;;;;;;34.97;21.45;;;;;;;;;;6141603;23;20117;-64
2023/11/03 01:50:42;;;;;;;;;;;;;;;;;;6141847;23;20344;-58
2023/11/03 01:53:36;;;;;;;34.72;21.80;;;;;;;;;;6141621;23;19925;-63
2023/11/03 01:56:23;;;;;;;35.08;20.77;;;;;;;;;;6143038;23;20076;-63
2023/11/03 01:59:19;;;;;;;31.48;16.35;;;;;;;;;;6142525;23;20036;-62
2023/11/03 02:02:13;;;;;;;34.20;21.15;;;;;;;;;;6140076;23;20034;-62
2023/11/03 02:05:13;;;;;;;35.13;20.52;;;;;;;;;;6140918;23;20029;-64
2023/11/03 02:08:01;;;;;;;29.63;19.27;;;;;;;;;;6142564;23;20645;-64
2023/11/03 02:10:55;;;;;;;28.65;18.40;;;;;;;;;;6140330;23;20026;-57
2023/11/03 02:13:42;;;;;;;29.90;19.10;;;;;;;;;;6141312;23;20325;-54
2023/11/03 02:16:36;;;;;;;32.70;19.83;;;;;;;;;;6142002;23;20022;-54
2023/11/03 02:19:24;;;;;;;24.60;17.03;;;;;;;;;;6142156;23;20604;-54
2023/11/03 02:22:18;;;;;;;31.20;18.60;;;;;;;;;;6141743;23;20311;-54
2023/11/03 02:25:12;;;;;;;32.50;18.55;;;;;;;;;;6140756;23;20468;-54
2023/11/03 02:28:06;;;;;;;41.15;19.35;;;;;;;;;;6141720;23;20399;-46
2023/11/03 02:31:00;;;;;;;34.88;20.52;;;;;;;;;;6140184;23;20026;-48
2023/11/03 02:33:53;;;;;;;32.65;18.02;;;;;;;;;;6136600;23;20104;-48
2023/11/03 02:36:48;;;;;;;32.83;20.55;;;;;;;;;;6140048;23;20103;-46
2023/11/03 02:39:36;;;;;;;38.47;23.23;;;;;;;;;;6140697;23;20618;-49
2023/11/03 02:42:28;;;;;;;35.38;21.20;;;;;;;;;;6142804;23;20026;-49
2023/11/03 02:45:16;;;;;;;36.97;24.27;;;;;;;;;;6141886;23;20057;-51
2023/11/03 02:48:09;;;;;;;40.72;23.33;;;;;;;;;;6142968;23;20032;-52
2023/11/03 02:50:59;;;;;;;34.35;23.00;;;;;;;;;;6142731;23;20041;-55
2023/11/03 02:53:33;;;;;;;39.92;23.10;;;;;;;;;;6141955;23;20084;-55
2023/11/03 02:56:29;;;;;;;41.25;23.63;;;;;;;;;;6140735;23;20056;-57
2023/11/03 02:59:23;;;;;;;45.28;24.50;;;;;;;;;;6141695;23;20088;-56
2023/11/03 03:02:24;;;;;;;44.22;25.92;;;;;;;;;;6142353;23;20025;-53
2023/11/03 03:05:18;;;;;;;44.00;23.20;;;;;;;;;;6143259;23;20124;-65
2023/11/03 03:08:12;;;;;;;44.92;23.77;;;;;;;;;;6144000;23;20032;-65
2023/11/03 03:11:00;;;;;;;46.50;25.25;;;;;;;;;;6141274;23;20100;-65
2023/11/03 03:13:54;;;;;;;46.67;26.27;;;;;;;;;;6143844;23;20025;-64
2023/11/03 03:16:41;;;;;;;36.22;20.45;;;;;;;;;;6143388;23;20112;-64
2023/11/03 03:19:35;;;;;;;45.80;26.50;;;;;;;;;;6143371;23;20026;-64
2023/11/03 03:22:22;;;;;;;43.60;25.38;;;;;;;;;;6141400;23;20796;-64
2023/11/03 03:25:16;;;;;;;35.90;17.65;;;;;;;;;;6142487;23;20025;-50
2023/11/03 03:28:03;;;;;;;45.20;25.10;;;;;;;;;;6144507;23;20052;-48
2023/11/03 03:30:56;;;;;;;40.25;26.35;;;;;;;;;;6141690;23;20025;-51
2023/11/03 03:33:50;;;;;;;38.28;22.98;;;;;;;;;;6140578;23;20034;-45
2023/11/03 03:36:45;;;;;;;43.00;25.50;;;;;;;;;;6141334;23;20029;-49
2023/11/03 03:39:39;;;;;;;42.67;22.85;;;;;;;;;;6141691;23;20471;-58
2023/11/03 03:42:26;;;;;;;50.38;26.15;;;;;;;;;;6141899;23;20061;-56
2023/11/03 03:45:20;;;;;;;49.45;26.45;;;;;;;;;;6142077;23;20029;-52
2023/11/03 03:48:07;;;;;;;47.17;25.77;;;;;;;;;;6143797;23;20104;-54
2023/11/03 03:51:01;;;;;;;38.30;22.23;;;;;;;;;;6144182;23;20076;-52
2023/11/03 03:53:48;;;;;;;45.65;24.50;;;;;;;;;;6142264;23;20022;-55
2023/11/03 03:56:42;;;;;;;49.80;26.60;;;;;;;;;;6143387;23;20841;-59
2023/11/03 03:59:29;;;;;;;36.28;20.85;;;;;;;;;;6143051;23;20036;-56
2023/11/03 04:02:29;;;;;;;35.97;18.15;;;;;;;;;;6140645;23;20088;-58
2023/11/03 04:05:17;;;;;;;47.03;25.63;;;;;;;;;;6140177;23;20723;-59
2023/11/03 04:08:11;;;;;;;41.33;24.40;;;;;;;;;;6139549;23;20037;-59
2023/11/03 04:11:00;;;;;;;48.38;25.52;;;;;;;;;;6142966;23;20025;-59
2023/11/03 04:13:53;;;;;;;47.33;23.75;;;;;;;;;;6144037;23;20027;-59
2023/11/03 04:16:40;;;;;;;44.22;25.70;;;;;;;;;;6141762;23;20032;-52
2023/11/03 04:19:34;;;;;;;46.30;25.92;;;;;;;;;;6143369;23;20029;-65
2023/11/03 04:22:21;;;;;;;42.42;24.80;;;;;;;;;;6141952;23;20025;-65
2023/11/03 04:25:15;;;;;;;49.63;24.88;;;;;;;;;;6141684;23;20021;-65
2023/11/03 04:28:02;;;;;;;44.33;21.25;;;;;;;;;;6143534;23;20025;-65
2023/11/03 04:30:55;;;;;;;44.42;23.38;;;;;;;;;;6141243;23;20026;-65
2023/11/03 04:33:43;;;;;;;39.45;23.75;;;;;;;;;;6141167;23;20104;-57
2023/11/03 04:36:37;;;;;;;46.75;23.73;;;;;;;;;;6141613;23;20056;-51
2023/11/03 04:39:25;;;;;;;45.65;23.83;;;;;;;;;;6143389;23;20029;-48
2023/11/03 04:42:19;;;;;;;45.22;24.73;;;;;;;;;;6143440;23;20033;-48
2023/11/03 04:45:08;;;;;;;46.63;24.17;;;;;;;;;;6143794;23;20029;-53
2023/11/03 04:48:00;;;;;;;47.55;26.48;;;;;;;;;;6144380;23;20029;-46
2023/11/03 04:50:47;;;;;;;43.40;25.17;;;;;;;;;;6142569;23;20029;-49
2023/11/03 04:53:41;;;;;;;58.75;26.05;;;;;;;;;;6142143;23;20084;-59
2023/11/03 04:56:28;;;;;;;51.03;25.65;;;;;;;;;;6140212;23;20021;-66
2023/11/03 04:59:05;;;;;;;52.13;26.40;;;;;;;;;;6144172;23;20017;-66
2023/11/03 05:01:50;;;;;;;49.03;26.55;;;;;;;;;;6139206;23;20404;-65
2023/11/03 05:04:45;;;;;;;50.22;26.58;;;;;;;;;;6110041;23;20058;-65
2023/11/03 05:07:39;;;;;;;53.13;28.80;;;;;;;;;;6109503;23;20497;-66
2023/11/03 05:10:33;;;;;;;50.08;29.25;;;;;;;;;;6110036;23;20028;-59
2023/11/03 05:13:20;;;;;;;64.20;28.83;;;;;;;;;;6109546;23;20021;-59
2023/11/03 05:16:14;;;;;;;44.58;24.70;;;;;;;;;;6108563;23;20022;-64
2023/11/03 05:19:07;;;;;;;53.67;28.27;;;;;;;;;;6111687;23;20022;-66
2023/11/03 05:22:02;;;;;;;53.47;29.52;;;;;;;;;;6112272;23;20041;-65
2023/11/03 05:24:50;;;;;;;58.53;29.50;;;;;;;;;;6110343;23;20279;-66
2023/11/03 05:27:43;;;;;;;55.35;27.90;;;;;;;;;;6109898;23;20604;-65
2023/11/03 05:30:38;;;;;;;53.45;29.45;;;;;;;;;;6110969;23;20073;-65
2023/11/03 05:33:25;;;;;;;56.92;27.27;;;;;;;;;;6113792;23;20602;-66
2023/11/03 05:36:19;;;;;;;57.80;29.50;;;;;;;;;;6109919;23;20596;-65
2023/11/03 05:39:08;;;;;;;62.05;30.67;;;;;;;;;;6113055;23;20024;-66
2023/11/03 05:42:00;;;;;;;56.85;28.13;;;;;;;;;;6112305;23;20029;-66
2023/11/03 05:44:47;;;;;;;46.30;24.85;;;;;;;;;;6109434;23;20163;-66
2023/11/03 05:47:41;;;;;;;62.85;30.45;;;;;;;;;;6109827;23;20036;-66
2023/11/03 05:50:28;;;;;;;60.38;30.05;;;;;;;;;;6110100;23;20029;-57
2023/11/03 05:53:22;;;;;;;50.63;29.27;;;;;;;;;;6110558;23;20025;-55
2023/11/03 05:56:09;;;;;;;54.25;29.00;;;;;;;;;;6110364;23;20023;-55
2023/11/03 05:59:03;;;;;;;55.72;28.77;;;;;;;;;;6112368;23;20519;-57
2023/11/03 06:01:51;;;;;;;53.53;29.42;;;;;;;;;;6111456;23;20403;-56
2023/11/03 06:04:50;;;;;;;61.28;29.60;;;;;;;;;;6112487;23;20030;-56
2023/11/03 06:07:38;;;;;;;56.70;28.48;;;;;;;;;;6112128;23;20464;-47
2023/11/03 06:10:32;;;;;;;43.15;22.40;;;;;;;;;;6111459;23;20025;-65
2023/11/03 06:13:19;;;;;;;53.05;27.23;;;;;;;;;;6111012;23;20030;-65
2023/11/03 06:16:13;;;;;;;51.30;26.40;;;;;;;;;;6113224;23;20030;-65
2023/11/03 06:19:00;;;;;;;53.78;28.60;;;;;;;;;;6115089;23;20029;-65
2023/11/03 06:22:00;;;;;;;47.00;26.38;;;;;;;;;;6114132;23;20613;-65
2023/11/03 06:24:47;;;;;;;55.53;28.65;;;;;;;;;;6113293;23;20241;-48
2023/11/03 06:27:42;;;;;;;51.47;26.35;;;;;;;;;;6114255;23;20029;-57
2023/11/03 06:30:30;;;;;;;48.63;27.60;;;;;;;;;;6115459;23;20081;-55
2023/11/03 06:33:24;;;;;;;47.78;27.52;;;;;;;;;;6116820;23;20044;-54
2023/11/03 06:36:11;;;;;;;48.05;26.45;;;;;;;;;;6114313;23;20476;-57
2023/11/03 06:39:16;;;;;;;44.10;24.17;;;;;;;;;;6116610;23;20178;-53
2023/11/03 06:42:05;;;;;;;44.67;23.93;;;;;;;;;;6114281;23;20026;-59
2023/11/03 06:44:56;;;;;;;41.25;24.73;;;;;;;;;;6114954;23;20041;-63
2023/11/03 06:47:51;;;;;;;46.00;26.90;;;;;;;;;;6114210;23;20041;-65
2023/11/03 06:50:38;;;;;;;49.88;24.15;;;;;;;;;;6112852;23;20025;-65
2023/11/03 06:53:32;;;;;;;43.53;26.08;;;;;;;;;;6114839;23;20018;-65
2023/11/03 06:56:19;;;;;;;48.17;27.52;;;;;;;;;;6114091;23;20537;-66
2023/11/03 06:59:14;;;;;;;48.03;25.38;;;;;;;;;;6115269;23;20026;-64
2023/11/03 07:02:14;;;;;;;44.78;25.35;;;;;;;;;;6115162;23;20499;-48
2023/11/03 07:05:08;;;;;;;47.08;25.35;;;;;;;;;;6143041;23;20025;-54
2023/11/03 07:07:57;;;;;;;46.38;24.35;;;;;;;;;;6141598;23;20843;-53
2023/11/03 07:10:44;;;;;;;45.60;24.70;;;;;;;;;;6137916;23;20025;-51
2023/11/03 07:13:39;;;;;;;40.40;25.55;;;;;;;;;;6134854;23;20407;-54
2023/11/03 07:16:26;;;;;;;42.72;26.38;;;;;;;;;;6140932;23;20021;-56
2023/11/03 07:19:20;;;;;;;36.67;21.95;;;;;;;;;;6140739;23;20497;-58
2023/11/03 07:21:55;;;;;;;37.90;23.92;;;;;;;;;;6141528;23;20030;-63
2023/11/03 07:24:48;;;;;;;37.08;20.27;;;;;;;;;;6142868;23;20100;-52
2023/11/03 07:27:43;;;;;;;42.58;20.85;;;;;;;;;;6137715;23;20097;-53
2023/11/03 07:30:30;;;;;;;32.20;22.10;;;;;;;;;;6141563;23;20507;-50
2023/11/03 07:33:24;;;;;;;37.28;23.20;;;;;;;;;;6140382;23;20021;-50
2023/11/03 07:36:11;;;;;;;37.45;21.25;;;;;;;;;;6141889;23;20030;-49
2023/11/03 07:39:06;;;;;;;36.58;19.48;;;;;;;;;;6141586;23;20029;-65
2023/11/03 07:41:59;;;;;;;31.40;17.85;;;;;;;;;;6141440;23;20515;-49
2023/11/03 07:44:46;;;;;;;34.95;19.55;;;;;;;;;;6140305;23;20403;-52
2023/11/03 07:47:41;;;;;;;32.45;21.45;;;;;;;;;;6142997;23;20081;-50
2023/11/03 07:50:27;;;;;;;32.03;20.48;;;;;;;;;;6142868;23;20129;-48
2023/11/03 07:53:21;;;;;;;31.88;19.17;;;;;;;;;;6142283;23;20096;-49
2023/11/03 07:56:08;;;;;;;29.67;18.80;;;;;;;;;;6143698;23;20033;-53
2023/11/03 07:59:03;;;;;;;26.38;17.08;;;;;;;;;;6140965;23;20033;-50
2023/11/03 08:01:51;;;;;;;27.58;17.33;;;;;;;;;;6138702;23;20025;-49
2023/11/03 08:04:51;;;;;;;27.20;16.52;;;;;;;;;;6142298;23;20056;-50
2023/11/03 08:07:39;;;;;;;29.30;16.20;;;;;;;;;;6140335;23;20100;-48
2023/11/03 08:10:33;;;;;;;23.50;15.00;;;;;;;;;;6140464;23;20591;-51
2023/11/03 08:13:22;;;;;;;26.05;15.45;;;;;;;;;;6140649;23;20842;-48
2023/11/03 08:16:14;;;;;;;23.38;14.75;;;;;;;;;;6140668;23;20033;-50
2023/11/03 08:19:01;;;;;;;25.02;16.60;;;;;;;;;;6142261;23;20025;-57
2023/11/03 08:21:55;;;;;;;28.95;16.90;;;;;;;;;;6140835;23;20032;-55
2023/11/03 08:24:49;;;;;;;27.45;15.95;;;;;;;;;;6143506;23;20029;-55
2023/11/03 08:27:43;;;;;;;43.05;16.25;;;;;;;;;;6141429;23;20455;-56
2023/11/03 08:30:30;;;;;;;27.83;16.48;;;;;;;;;;6144524;23;20067;-58
2023/11/03 08:33:25;;;;;;;25.33;14.73;;;;;;;;;;6145405;23;20026;-60
2023/11/03 08:36:11;;;;;;;30.70;16.65;;;;;;;;;;6143301;23;20025;-55
2023/11/03 08:39:08;;;;;;;23.15;13.82;;;;;;;;;;6141543;23;20036;-59
2023/11/03 08:41:56;;;;;;;26.83;16.35;;;;;;;;;;6139531;23;20086;-54
2023/11/03 08:44:50;;;;;;;24.40;14.10;;;;;;;;;;6142823;23;20029;-55
2023/11/03 08:47:41;;;;;;;25.80;15.50;;;;;;;;;;6142395;23;20029;-56
2023/11/03 08:50:31;;;;;;;19.58;12.68;;;;;;;;;;6142188;23;20023;-57
2023/11/03 08:53:19;;;;;;;19.92;13.35;;;;;;;;;;6141705;23;20021;-59
2023/11/03 08:56:14;;;;;;;20.88;12.82;;;;;;;;;;6139480;23;20476;-63
2023/11/03 08:59:03;;;;;;;20.10;13.38;;;;;;;;;;6142080;23;20029;-62
2023/11/03 09:01:56;;;;;;;21.75;13.45;;;;;;;;;;6140711;23;20025;-63
2023/11/03 09:04:49;;;;;;;22.13;13.27;;;;;;;;;;6140657;23;20029;-63
2023/11/03 09:07:45;;;;;;;21.85;13.70;;;;;;;;;;6139712;23;20025;-62
2023/11/03 09:10:32;;;;;;;21.77;13.90;;;;;;;;;;6142034;23;20026;-54
2023/11/03 09:13:26;;;;;;;21.50;14.30;;;;;;;;;;6141844;23;20248;-63
2023/11/03 09:16:13;;;;;;;23.33;14.95;;;;;;;;;;6140545;23;20033;-64
2023/11/03 09:19:07;;;;;;;22.20;13.95;;;;;;;;;;6141812;23;20021;-64
2023/11/03 09:21:54;;;;;;;19.90;12.75;;;;;;;;;;6141580;23;20100;-62
2023/11/03 09:25:01;;;;;;;19.27;12.35;;;;;;;;;;6141799;23;20029;-64
2023/11/03 09:27:54;;;;;;;20.08;13.07;;;;;;;;;;6141759;23;20025;-59
2023/11/03 09:30:42;;;;;;;18.13;12.95;;;;;;;;;;6140682;23;20056;-65
2023/11/03 09:33:35;;;;;;;24.15;13.52;;;;;;;;;;6141516;23;20053;-46
2023/11/03 09:36:29;;;;;;;22.20;11.88;;;;;;;;;;6140679;23;20530;-49
2023/11/03 09:39:16;;;;;;;19.98;12.55;;;;;;;;;;6139077;23;20559;-49
2023/11/03 09:42:16;;;;;;;18.75;12.57;;;;;;;;;;6138706;23;20093;-51
2023/11/03 09:45:15;;;;;;;20.73;13.05;;;;;;;;;;6141229;23;20029;-51
2023/11/03 09:48:03;;;;;;;17.40;11.02;;;;;;;;;;6140004;23;20028;-64
2023/11/03 09:50:50;;;;;;;19.38;12.73;;;;;;;;;;6139142;23;20061;-58
2023/11/03 09:53:48;;;;;;;19.85;11.88;;;;;;;;;;6141007;23;20534;-57
2023/11/03 09:56:36;;;;;;;21.05;11.57;;;;;;;;;;6139578;23;20582;-56
2023/11/03 09:59:34;;;;;;;18.67;12.05;;;;;;;;;;6140665;23;20037;-56
2023/11/03 10:02:20;;;;;;;18.70;11.77;;;;;;;;;;6137695;23;20289;-56
2023/11/03 10:05:23;;;;;;;18.23;12.25;;;;;;;;;;6140480;23;20792;-65
2023/11/03 10:08:17;;;;;;;16.45;10.48;;;;;;;;;;6140827;23;20021;-52
2023/11/03 10:11:09;;;;;;;18.52;11.32;;;;;;;;;;6138744;23;20025;-55
2023/11/03 10:13:55;;;;;;;17.23;11.50;;;;;;;;;;6140877;23;20025;-53
2023/11/03 10:16:50;;;;;;;17.85;11.48;;;;;;;;;;6140333;23;20080;-52
2023/11/03 10:19:43;;;;;;;18.30;12.25;;;;;;;;;;6139310;23;20029;-53
2023/11/03 10:22:31;;;;;;;16.10;11.07;;;;;;;;;;6138927;23;20517;-58
2023/11/03 10:25:26;;;;;;;20.90;11.15;;;;;;;;;;6138608;23;20029;-65
2023/11/03 10:27:57;;;;;;;13.57;9.35;;;;;;;;;;6140722;23;20074;-55
2023/11/03 10:30:55;;;;;;;17.60;9.90;;;;;;;;;;6140643;23;20025;-58
2023/11/03 10:33:43;;;;;;;12.73;9.45;;;;;;;;;;6138957;23;20032;-56
2023/11/03 10:36:36;;;;;;;16.02;9.90;;;;;;;;;;6138900;23;20025;-55
2023/11/03 10:39:25;;;;;;;12.70;9.80;;;;;;;;;;6140226;23;20026;-56
2023/11/03 10:42:20;;;;;;;17.58;10.07;;;;;;;;;;6138551;23;20032;-50
2023/11/03 10:45:08;;;;;;;12.18;8.73;;;;;;;;;;6141534;23;20092;-58
2023/11/03 10:48:15;;;;;;;14.07;10.13;;;;;;;;;;6139532;23;20032;-56
2023/11/03 10:51:08;;;;;;;15.30;10.13;;;;;;;;;;6140884;23;20022;-57
2023/11/03 10:54:10;;;;;;;12.38;9.85;;;;;;;;;;6141817;23;20325;-53
2023/11/03 10:56:57;;;;;;;14.18;9.57;;;;;;;;;;6140877;23;20053;-57
2023/11/03 11:00:09;;;;;;;12.30;8.93;;;;;;;;;;6142890;23;20463;-65
2023/11/03 11:03:09;;;;;;;13.48;10.23;;;;;;;;;;6136844;23;21802;-65
2023/11/03 11:06:09;;;;;;;19.00;9.85;;;;;;;;;;6142147;23;20029;-65
2023/11/03 11:09:01;;;;;;;18.25;10.13;;;;;;;;;;6142923;23;20463;-65
2023/11/03 11:12:00;;;;;;;13.25;9.32;;;;;;;;;;6142154;23;20025;-64
2023/11/03 11:14:54;;;;;;;11.40;8.18;;;;;;;;;;6143540;23;20026;-64
2023/11/03 11:17:41;;;;;;;14.52;8.85;;;;;;;;;;6141912;23;20033;-65
2023/11/03 11:20:35;;;;;;;12.02;9.40;;;;;;;;;;6142247;23;20022;-64
2023/11/03 11:23:23;;;;;;;14.20;8.85;;;;;;;;;;6141251;23;20033;-51
2023/11/03 11:26:20;;;;;;;14.05;8.32;;;;;;;;;;6139744;23;20029;-53
2023/11/03 11:29:05;;;;;;;;;;;;;;;;;;6143632;23;20021;-54
2023/11/03 11:32:09;;;;;;;10.90;7.60;;;;;;;;;;6141556;23;19924;-57
2023/11/03 11:34:56;;;;;;;8.57;6.65;;;;;;;;;;6142440;23;20025;-56
2023/11/03 11:37:50;;;;;;;8.40;6.57;;;;;;;;;;6140861;23;20036;-58
2023/11/03 11:40:37;;;;;;;9.10;5.95;;;;;;;;;;6141782;23;20052;-65
2023/11/03 11:43:31;;;;;;;8.82;6.38;;;;;;;;;;6142138;23;20025;-65
2023/11/03 11:46:20;;;;;;;7.30;6.05;;;;;;;;;;6143826;23;20025;-65
2023/11/03 11:49:13;;;;;;;8.43;6.50;;;;;;;;;;6142295;23;20026;-66
2023/11/03 11:52:08;;;;;;;7.70;6.72;;;;;;;;;;6142104;23;20025;-66
2023/11/03 11:54:55;;;;;;;10.07;5.88;;;;;;;;;;6142458;23;20026;-50
2023/11/03 11:57:50;;;;;;;8.48;6.35;;;;;;;;;;6141818;23;20022;-66
2023/11/03 12:00:40;;;;;;;7.18;6.03;;;;;;;;;;6141781;23;20364;-57
2023/11/03 12:03:44;;;;;;;8.32;6.63;;;;;;;;;;6140286;23;20025;-57
2023/11/03 12:06:32;;;;;;;11.40;6.85;;;;;;;;;;6141421;23;20092;-59
2023/11/03 12:09:26;;;;;;;8.80;6.10;;;;;;;;;;6140822;23;20467;-59
2023/11/03 12:12:20;;;;;;;12.27;6.57;;;;;;;;;;6141526;23;20064;-59
2023/11/03 12:15:14;;;;;;;8.38;6.65;;;;;;;;;;6143721;23;20499;-66
2023/11/03 12:18:08;;;;;;;8.45;6.10;;;;;;;;;;6141992;23;20018;-65
2023/11/03 12:21:05;;;;;;;10.27;5.90;;;;;;;;;;6142175;23;20022;-66
2023/11/03 12:24:00;;;;;;;11.73;6.00;;;;;;;;;;6142307;23;20186;-66
2023/11/03 12:26:46;;;;;;;8.68;5.07;;;;;;;;;;6141948;23;20036;-65
2023/11/03 12:29:40;;;;;;;8.27;5.80;;;;;;;;;;6141805;23;20581;-65
2023/11/03 12:32:27;;;;;;;9.85;6.05;;;;;;;;;;6139905;23;20076;-64
2023/11/03 12:35:31;;;;;;;8.45;5.00;;;;;;;;;;6141179;23;20064;-55
2023/11/03 12:38:17;;;;;;;7.15;5.60;;;;;;;;;;6141719;23;20768;-57
2023/11/03 12:41:15;;;;;;;7.38;5.57;;;;;;;;;;6140959;23;20021;-55
2023/11/03 12:44:05;;;;;;;6.20;5.28;;;;;;;;;;6141805;23;20037;-58
2023/11/03 12:46:56;;;;;;;10.32;6.40;;;;;;;;;;6140637;23;20097;-58
2023/11/03 12:49:43;;;;;;;7.68;5.57;;;;;;;;;;6141106;23;20025;-56
2023/11/03 12:52:37;;;;;;;7.70;5.18;;;;;;;;;;6137836;23;20096;-59
2023/11/03 12:55:25;;;;;;;7.70;5.07;;;;;;;;;;6141528;23;20830;-65
2023/11/03 12:58:19;;;;;;;8.73;5.57;;;;;;;;;;6141032;23;20510;-65
2023/11/03 13:01:08;;;;;;;7.05;5.72;;;;;;;;;;6142685;23;20021;-65
2023/11/03 13:04:13;;;;;;;6.10;4.90;;;;;;;;;;6139954;23;20027;-65
2023/11/03 13:07:11;;;;;;;6.60;5.40;;;;;;;;;;6142340;23;20392;-65
2023/11/03 13:10:03;;;;;;;8.80;5.35;;;;;;;;;;6141413;23;20030;-63
2023/11/03 13:12:49;;;;;;;7.60;4.97;;;;;;;;;;6142084;23;20021;-51
2023/11/03 13:15:43;;;;;;;7.18;5.38;;;;;;;;;;6142182;23;20080;-51
2023/11/03 13:18:30;;;;;;;10.40;5.32;;;;;;;;;;6141358;23;20022;-49
2023/11/03 13:21:24;;;;;;;6.13;5.18;;;;;;;;;;6141961;23;20060;-53
2023/11/03 13:24:12;;;;;;;10.73;5.18;;;;;;;;;;6140940;23;20111;-49
2023/11/03 13:27:05;;;;;;;7.43;4.80;;;;;;;;;;6140806;23;20076;-57
2023/11/03 13:29:52;;;;;;;6.55;4.93;;;;;;;;;;6141813;23;20037;-59
2023/11/03 13:32:49;;;;;;;7.43;5.00;;;;;;;;;;6139933;23;20026;-59
2023/11/03 13:35:39;;;;;;;8.52;5.35;;;;;;;;;;6141068;23;20424;-59
2023/11/03 13:38:30;;;;;;;6.03;4.50;;;;;;;;;;6139088;23;20534;-58
2023/11/03 13:41:23;;;;;;;7.53;4.80;;;;;;;;;;6141341;23;20021;-59
2023/11/03 13:44:18;;;;;;;9.65;4.57;;;;;;;;;;6141107;23;20468;-59
2023/11/03 13:47:12;;;;;;;7.72;4.85;;;;;;;;;;6140470;23;20033;-49
2023/11/03 13:49:59;;;;;;;6.40;4.32;;;;;;;;;;6141954;23;20018;-58
2023/11/03 13:52:53;;;;;;;9.70;4.30;;;;;;;;;;6140339;23;20063;-59
2023/11/03 13:55:47;;;;;;;7.68;4.60;;;;;;;;;;6142384;23;20029;-59
2023/11/03 13:58:34;;;;;;;7.00;4.60;;;;;;;;;;6140500;23;20025;-58
2023/11/03 14:01:28;;;;;;;6.13;4.50;;;;;;;;;;6139551;23;20072;-59
2023/11/03 14:04:22;;;;;;;6.72;4.95;;;;;;;;;;6139533;23;20946;-59
2023/11/03 14:07:24;;;;;;;8.55;5.40;;;;;;;;;;6141675;23;20029;-60
2023/11/03 14:10:13;;;;;;;7.57;5.25;;;;;;;;;;6141517;23;20399;-61
2023/11/03 14:13:04;;;;;;;9.40;5.38;;;;;;;;;;6139482;23;20112;-65
2023/11/03 14:15:51;;;;;;;10.68;5.70;;;;;;;;;;6138182;23;20104;-60
2023/11/03 14:18:45;;;;;;;6.60;4.97;;;;;;;;;;6140452;23;20021;-60
2023/11/03 14:21:32;;;;;;;10.15;4.85;;;;;;;;;;6143070;23;20026;-53
2023/11/03 14:24:26;;;;;;;13.52;6.30;;;;;;;;;;6142355;23;20033;-63
2023/11/03 14:27:17;;;;;;;8.38;4.63;;;;;;;;;;6141284;23;20036;-57
2023/11/03 14:30:13;;;;;;;12.20;5.13;;;;;;;;;;6141557;23;20025;-57
2023/11/03 14:33:01;;;;;;;6.72;5.03;;;;;;;;;;6140042;23;20028;-54
2023/11/03 14:35:54;;;;;;;10.10;4.95;;;;;;;;;;6142408;23;20025;-57
2023/11/03 14:38:42;;;;;;;9.75;4.85;;;;;;;;;;6141572;23;20032;-56
2023/11/03 14:41:35;;;;;;;10.32;5.43;;;;;;;;;;6141919;23;20084;-64
2023/11/03 14:44:22;;;;;;;7.20;5.05;;;;;;;;;;6143877;23;20025;-59
2023/11/03 14:47:16;;;;;;;8.68;4.95;;;;;;;;;;6142042;23;20022;-59
2023/11/03 14:50:03;;;;;;;5.90;4.90;;;;;;;;;;6144728;23;20018;-58
2023/11/03 14:52:57;;;;;;;6.28;4.78;;;;;;;;;;6142982;23;20750;-59
2023/11/03 14:55:44;;;;;;;9.32;5.18;;;;;;;;;;6141525;23;20022;-59
2023/11/03 14:58:38;;;;;;;8.23;4.97;;;;;;;;;;6141587;23;20021;-61
2023/11/03 15:01:32;;;;;;;8.43;4.63;;;;;;;;;;6143166;23;20755;-62
2023/11/03 15:04:39;;;;;;;7.80;4.63;;;;;;;;;;6142562;23;20033;-51
2023/11/03 15:07:34;;;;;;;11.48;5.20;;;;;;;;;;6142805;23;20072;-49
2023/11/03 15:10:30;;;;;;;8.40;4.95;;;;;;;;;;6144070;23;20025;-49
2023/11/03 15:13:04;;;;;;;9.45;4.80;;;;;;;;;;6143112;23;20100;-50
2023/11/03 15:15:32;;;;;;;9.52;4.20;;;;;;;;;;6143333;23;20040;-50
2023/11/03 15:18:00;;;;;;;8.23;4.53;;;;;;;;;;6142394;23;20026;-62
2023/11/03 15:20:35;;;;;;;8.68;4.60;;;;;;;;;;6141714;23;20026;-52
2023/11/03 15:23:23;;;;;;;11.25;4.72;;;;;;;;;;6140992;23;20345;-53
2023/11/03 15:26:17;;;;;;;7.15;4.80;;;;;;;;;;6143473;23;20824;-54
2023/11/03 15:29:04;;;;;;;6.68;4.80;;;;;;;;;;6140709;23;20029;-55
2023/11/03 15:31:57;;;;;;;8.02;4.70;;;;;;;;;;6139598;23;20021;-53
2023/11/03 15:34:45;;;;;;;12.32;4.53;;;;;;;;;;6142562;23;20069;-53
2023/11/03 15:37:40;;;;;;;8.68;4.15;;;;;;;;;;6142782;23;20025;-55
2023/11/03 15:40:25;;;;;;;8.98;4.65;;;;;;;;;;6138226;23;20022;-60
2023/11/03 15:43:19;;;;;;;6.68;4.65;;;;;;;;;;6138285;23;20185;-60
2023/11/03 15:46:13;;;;;;;13.18;5.05;;;;;;;;;;6137217;23;20037;-59
2023/11/03 15:49:03;;;;;;;10.70;4.57;;;;;;;;;;6140117;23;20573;-61
2023/11/03 15:51:40;;;;;;;9.05;4.38;;;;;;;;;;6138956;23;20021;-64
2023/11/03 15:54:25;;;;;;;7.55;4.40;;;;;;;;;;6138652;23;20426;-60
2023/11/03 15:57:19;;;;;;;12.02;5.00;;;;;;;;;;6142042;23;20080;-60
2023/11/03 15:59:48;;;;;;;9.27;4.95;;;;;;;;;;6140703;23;20036;-60
2023/11/03 16:02:43;;;;;;;9.20;4.30;;;;;;;;;;6140975;23;20539;-60
2023/11/03 16:05:37;;;;;;;6.63;4.33;;;;;;;;;;6138508;23;20515;-60
2023/11/03 16:08:29;;;;;;;9.35;4.95;;;;;;;;;;6138445;23;20053;-60
2023/11/03 16:11:23;;;;;;;7.28;4.03;;;;;;;;;;6142488;23;20033;-60
2023/11/03 16:14:11;;;;;;;9.23;4.90;;;;;;;;;;6143242;23;20223;-64
2023/11/03 16:17:04;;;;;;;15.80;5.55;;;;;;;;;;6141266;23;20045;-50
2023/11/03 16:19:51;;;;;;;9.40;4.63;;;;;;;;;;6142684;23;20029;-48
2023/11/03 16:22:45;;;;;;;11.63;5.45;;;;;;;;;;6141847;23;20084;-51
2023/11/03 16:25:32;;;;;;;9.93;5.13;;;;;;;;;;6136300;23;20021;-48
2023/11/03 16:28:06;;;;;;;11.75;5.22;;;;;;;;;;6141419;23;20715;-48
2023/11/03 16:30:53;;;;;;;8.43;4.97;;;;;;;;;;6143648;23;20025;-63
2023/11/03 16:33:27;;;;;;;8.82;5.10;;;;;;;;;;6140977;23;20487;-65
2023/11/03 16:35:56;;;;;;;11.07;5.45;;;;;;;;;;6142196;23;20029;-47
2023/11/03 16:38:51;;;;;;;14.20;4.88;;;;;;;;;;6141050;23;20581;-47
2023/11/03 16:41:38;;;;;;;9.33;5.27;;;;;;;;;;6139387;23;20144;-48
2023/11/03 16:44:31;;;;;;;10.82;4.70;;;;;;;;;;6139550;23;20418;-53